createdAt,value
2023-05-07T00:00:23.114Z,7.30
2023-05-07T00:02:50.447Z,6.87
2023-05-07T00:05:18.827Z,7.33
2023-05-07T00:07:46.359Z,6.53
2023-05-07T00:10:14.031Z,6.77
2023-05-07T00:12:42.090Z,6.60
2023-05-07T00:15:09.791Z,6.17
2023-05-07T00:17:37.312Z,6.90
2023-05-07T00:23:03.264Z,6.50
2023-05-07T00:25:30.546Z,5.50
2023-05-07T00:28:03.654Z,5.87
2023-05-07T00:30:30.984Z,6.17
2023-05-07T00:33:00.481Z,5.90
2023-05-07T00:35:31.226Z,6.07
2023-05-07T00:37:58.450Z,5.80
2023-05-07T00:40:25.897Z,6.30
2023-05-07T00:42:57.864Z,5.93
2023-05-07T00:45:27.934Z,6.00
2023-05-07T00:48:00.208Z,5.50
2023-05-07T00:50:28.522Z,6.37
2023-05-07T00:52:58.949Z,5.67
2023-05-07T00:55:26.267Z,5.33
2023-05-07T00:57:55.703Z,5.70
2023-05-07T01:00:26.175Z,5.17
2023-05-07T01:02:56.051Z,5.33
2023-05-07T01:05:50.193Z,5.60
2023-05-07T01:08:17.995Z,5.83
2023-05-07T01:10:46.070Z,5.83
2023-05-07T01:13:14.248Z,6.00
2023-05-07T01:15:44.279Z,5.90
2023-05-07T01:18:11.861Z,6.17
2023-05-07T01:20:39.201Z,6.53
2023-05-07T01:23:06.944Z,6.70
2023-05-07T01:25:34.384Z,6.87
2023-05-07T01:28:02.344Z,6.77
2023-05-07T01:30:30.190Z,7.63
2023-05-07T01:33:06.713Z,6.60
2023-05-07T01:35:41.262Z,6.80
2023-05-07T01:38:08.753Z,7.33
2023-05-07T01:40:36.058Z,7.70
2023-05-07T01:43:06.967Z,7.53
2023-05-07T01:45:34.461Z,7.63
2023-05-07T01:48:02.667Z,7.63
2023-05-07T01:50:30.171Z,7.60
2023-05-07T01:52:57.516Z,7.07
2023-05-07T01:55:24.857Z,7.20
2023-05-07T01:57:52.111Z,6.60
2023-05-07T02:00:20.048Z,7.10
2023-05-07T02:02:47.410Z,6.80
2023-05-07T02:05:15.011Z,7.47
2023-05-07T02:07:42.288Z,7.10
2023-05-07T02:10:09.795Z,7.10
2023-05-07T02:12:37.151Z,6.83
2023-05-07T02:15:04.761Z,7.00
2023-05-07T02:17:32.988Z,7.50
2023-05-07T02:20:01.051Z,6.90
2023-05-07T02:22:28.519Z,7.47
2023-05-07T02:24:56.086Z,7.80
2023-05-07T02:27:23.249Z,7.10
2023-05-07T02:29:50.409Z,7.27
2023-05-07T02:32:17.678Z,7.63
2023-05-07T02:34:45.054Z,8.03
2023-05-07T02:37:12.619Z,7.40
2023-05-07T02:39:39.993Z,8.10
2023-05-07T02:42:07.136Z,7.80
2023-05-07T02:44:34.526Z,8.43
2023-05-07T02:47:01.775Z,8.47
2023-05-07T02:49:28.956Z,7.47
2023-05-07T02:51:56.935Z,8.00
2023-05-07T02:54:24.183Z,8.40
2023-05-07T02:56:51.351Z,8.53
2023-05-07T02:59:18.598Z,8.40
2023-05-07T03:01:46.398Z,8.03
2023-05-07T03:04:13.660Z,8.03
2023-05-07T03:06:40.854Z,8.33
2023-05-07T03:09:09.604Z,8.60
2023-05-07T03:11:36.823Z,8.17
2023-05-07T03:14:04.233Z,9.10
2023-05-07T03:16:31.509Z,7.83
2023-05-07T03:18:58.813Z,8.60
2023-05-07T03:21:27.418Z,8.43
2023-05-07T03:23:54.632Z,8.13
2023-05-07T03:26:22.321Z,8.67
2023-05-07T03:28:49.467Z,8.30
2023-05-07T03:31:16.664Z,8.27
2023-05-07T03:33:54.433Z,8.00
2023-05-07T03:36:22.104Z,8.10
2023-05-07T03:38:49.912Z,8.57
2023-05-07T03:41:17.318Z,7.93
2023-05-07T03:43:44.465Z,8.17
2023-05-07T03:46:12.227Z,8.10
2023-05-07T03:48:39.605Z,8.53
2023-05-07T03:51:07.222Z,8.57
2023-05-07T03:53:34.389Z,8.07
2023-05-07T03:56:01.581Z,7.93
2023-05-07T03:58:29.105Z,8.03
2023-05-07T04:00:57.039Z,7.00
2023-05-07T04:03:24.261Z,7.47
2023-05-07T04:05:51.554Z,7.10
2023-05-07T04:08:18.748Z,7.73
2023-05-07T04:10:46.005Z,7.40
2023-05-07T04:13:13.205Z,6.87
2023-05-07T04:15:40.564Z,7.30
2023-05-07T04:18:07.821Z,7.30
2023-05-07T04:20:37.626Z,7.27
2023-05-07T04:23:05.006Z,7.10
2023-05-07T04:25:32.229Z,7.00
2023-05-07T04:27:59.652Z,7.53
2023-05-07T04:30:27.226Z,6.93
2023-05-07T04:32:54.610Z,7.30
2023-05-07T04:35:21.820Z,6.60
2023-05-07T04:37:49.091Z,7.63
2023-05-07T04:40:16.950Z,7.07
2023-05-07T04:42:44.223Z,6.93
2023-05-07T04:45:11.489Z,6.53
2023-05-07T04:47:38.717Z,6.80
2023-05-07T04:50:06.524Z,6.70
2023-05-07T04:52:34.351Z,7.10
2023-05-07T04:55:01.999Z,7.17
2023-05-07T04:57:29.287Z,6.67
2023-05-07T04:59:56.520Z,6.43
2023-05-07T05:02:23.786Z,6.23
2023-05-07T05:04:51.015Z,6.27
2023-05-07T05:07:18.191Z,5.90
2023-05-07T05:09:45.932Z,5.50
2023-05-07T05:12:13.143Z,6.10
2023-05-07T05:14:40.323Z,5.70
2023-05-07T05:17:07.516Z,5.83
2023-05-07T05:19:34.718Z,6.40
2023-05-07T05:22:05.093Z,6.10
2023-05-07T05:24:32.609Z,5.80
2023-05-07T05:27:02.282Z,5.77
2023-05-07T05:29:29.510Z,5.83
2023-05-07T05:31:56.751Z,5.80
2023-05-07T05:34:24.278Z,5.10
2023-05-07T05:36:51.532Z,4.90
2023-05-07T05:39:18.868Z,5.40
2023-05-07T05:41:46.176Z,4.80
2023-05-07T05:44:14.318Z,4.50
2023-05-07T05:46:41.547Z,4.00
2023-05-07T05:49:09.641Z,3.57
2023-05-07T05:51:36.895Z,3.90
2023-05-07T05:54:04.176Z,3.40
2023-05-07T05:56:31.346Z,3.50
2023-05-07T05:58:58.562Z,3.40
2023-05-07T06:01:25.852Z,3.60
2023-05-07T06:03:54.058Z,3.30
2023-05-07T06:06:21.236Z,3.00
2023-05-07T06:08:48.413Z,3.13
2023-05-07T06:11:15.602Z,3.30
2023-05-07T06:13:42.833Z,3.33
2023-05-07T06:16:10.049Z,3.20
2023-05-07T06:18:37.246Z,3.20
2023-05-07T06:21:04.558Z,3.00
2023-05-07T06:23:31.684Z,3.80
2023-05-07T06:25:58.829Z,3.53
2023-05-07T06:28:26.154Z,3.80
2023-05-07T06:30:53.325Z,3.20
2023-05-07T06:33:20.889Z,2.70
2023-05-07T06:35:48.083Z,2.60
2023-05-07T06:38:15.330Z,3.27
2023-05-07T06:40:42.513Z,2.70
2023-05-07T06:43:09.747Z,2.30
2023-05-07T06:45:37.465Z,2.60
2023-05-07T06:48:05.460Z,2.50
2023-05-07T06:50:32.698Z,3.30
2023-05-07T06:52:59.848Z,2.47
2023-05-07T06:55:27.031Z,2.53
2023-05-07T06:57:54.223Z,2.00
2023-05-07T07:00:21.680Z,2.23
2023-05-07T07:02:48.991Z,2.30
2023-05-07T07:05:16.299Z,2.20
2023-05-07T07:07:43.459Z,2.47
2023-05-07T07:10:11.512Z,2.47
2023-05-07T07:12:38.940Z,2.43
2023-05-07T07:15:06.474Z,2.30
2023-05-07T07:17:33.766Z,2.17
2023-05-07T07:20:00.992Z,1.90
2023-05-07T07:22:28.242Z,2.00
2023-05-07T07:24:55.501Z,1.73
2023-05-07T07:27:22.931Z,1.60
2023-05-07T07:29:50.321Z,1.80
2023-05-07T07:32:17.605Z,1.63
2023-05-07T07:34:44.839Z,1.57
2023-05-07T07:37:12.198Z,1.57
2023-05-07T07:39:39.385Z,1.73
2023-05-07T07:42:06.664Z,1.70
2023-05-07T07:44:33.873Z,1.97
2023-05-07T07:47:01.174Z,1.33
2023-05-07T07:49:28.671Z,1.60
2023-05-07T07:51:57.376Z,1.33
2023-05-07T07:54:24.626Z,1.30
2023-05-07T07:56:52.102Z,1.20
2023-05-07T07:59:20.055Z,1.30
2023-05-07T08:01:49.372Z,1.37
2023-05-07T08:04:16.717Z,1.53
2023-05-07T08:06:43.984Z,1.43
2023-05-07T08:09:11.168Z,1.80
2023-05-07T08:11:38.367Z,1.67
2023-05-07T08:14:06.061Z,1.57
2023-05-07T08:16:33.275Z,1.37
2023-05-07T08:19:00.754Z,1.53
2023-05-07T08:21:27.950Z,1.67
2023-05-07T08:23:55.154Z,1.47
2023-05-07T08:26:22.300Z,1.80
2023-05-07T08:28:49.450Z,1.40
2023-05-07T08:31:17.073Z,1.60
2023-05-07T08:33:44.260Z,1.33
2023-05-07T08:36:11.515Z,1.50
2023-05-07T08:38:38.805Z,1.50
2023-05-07T08:41:08.688Z,1.43
2023-05-07T08:43:37.987Z,1.40
2023-05-07T08:46:07.487Z,1.70
2023-05-07T08:48:36.927Z,1.73
2023-05-07T08:51:04.232Z,1.90
2023-05-07T08:53:31.628Z,1.80
2023-05-07T08:55:59.763Z,1.77
2023-05-07T08:58:26.952Z,1.80
2023-05-07T09:00:55.565Z,1.60
2023-05-07T09:03:22.871Z,2.10
2023-05-07T09:05:50.048Z,1.70
2023-05-07T09:08:17.835Z,1.77
2023-05-07T09:10:49.257Z,1.67
2023-05-07T09:13:16.687Z,1.80
2023-05-07T09:15:43.970Z,1.70
2023-05-07T09:18:11.411Z,1.83
2023-05-07T09:20:39.440Z,2.13
2023-05-07T09:23:08.228Z,1.83
2023-05-07T09:25:36.358Z,1.80
2023-05-07T09:28:04.408Z,1.80
2023-05-07T09:30:32.799Z,1.60
2023-05-07T09:33:00.690Z,1.70
2023-05-07T09:35:28.500Z,1.80
2023-05-07T09:37:56.900Z,1.93
2023-05-07T09:40:24.849Z,1.73
2023-05-07T09:42:52.333Z,1.98
2023-05-07T09:45:31.702Z,2.00
2023-05-07T09:47:59.531Z,1.50
2023-05-07T09:50:31.503Z,1.83
2023-05-07T09:52:59.306Z,1.75
2023-05-07T09:55:27.181Z,1.98
2023-05-07T09:57:56.745Z,1.65
2023-05-07T10:00:24.566Z,1.90
2023-05-07T10:02:53.454Z,2.00
2023-05-07T10:05:24.263Z,1.63
2023-05-07T10:07:52.619Z,2.00
2023-05-07T10:10:20.074Z,1.83
2023-05-07T10:12:47.285Z,1.95
2023-05-07T10:15:15.973Z,2.00
2023-05-07T10:17:43.490Z,2.10
2023-05-07T10:20:10.937Z,2.05
2023-05-07T10:22:43.974Z,1.65
2023-05-07T10:25:17.627Z,1.92
2023-05-07T10:27:45.930Z,1.73
2023-05-07T10:30:33.057Z,2.00
2023-05-07T10:33:07.042Z,1.90
2023-05-07T10:35:39.464Z,1.50
2023-05-07T10:38:06.831Z,1.60
2023-05-07T10:40:34.467Z,2.03
2023-05-07T10:43:02.669Z,1.90
2023-05-07T10:45:30.590Z,2.15
2023-05-07T10:50:49.534Z,1.60
2023-05-07T10:53:22.492Z,1.58
2023-05-07T10:55:53.709Z,1.60
2023-05-07T11:01:03.428Z,2.00
2023-05-07T11:03:30.882Z,1.80
2023-05-07T11:06:18.293Z,1.98
2023-05-07T11:08:55.506Z,1.90
2023-05-07T11:11:43.622Z,1.83
2023-05-07T11:14:10.956Z,1.58
2023-05-07T11:16:38.784Z,1.77
2023-05-07T11:19:06.213Z,1.75
2023-05-07T11:21:33.568Z,1.58
2023-05-07T11:24:01.313Z,1.52
2023-05-07T11:26:29.418Z,1.60
2023-05-07T11:28:57.881Z,1.40
2023-05-07T11:31:27.021Z,1.50
2023-05-07T11:33:55.202Z,1.50
2023-05-07T11:36:23.777Z,1.70
2023-05-07T11:38:50.961Z,1.30
2023-05-07T11:41:22.792Z,1.67
2023-05-07T11:43:59.761Z,1.38
2023-05-07T11:46:27.362Z,1.60
2023-05-07T11:48:54.954Z,1.80
2023-05-07T11:51:23.002Z,2.55
2023-05-07T11:53:50.470Z,2.58
2023-05-07T11:56:18.473Z,2.42
2023-05-07T11:58:46.253Z,1.77
2023-05-07T12:01:14.468Z,1.40
2023-05-07T12:03:47.048Z,1.30
2023-05-07T12:06:15.555Z,1.48
2023-05-07T12:08:44.364Z,1.33
2023-05-07T12:11:24.328Z,1.23
2023-05-07T12:13:51.647Z,1.45
2023-05-07T12:16:19.232Z,1.58
2023-05-07T12:18:46.856Z,1.38
2023-05-07T12:21:14.393Z,1.42
2023-05-07T12:23:41.760Z,1.60
2023-05-07T12:26:10.459Z,1.60
2023-05-07T12:28:39.681Z,1.35
2023-05-07T12:31:08.050Z,1.45
2023-05-07T12:33:36.304Z,1.40
2023-05-07T12:36:08.936Z,1.15
2023-05-07T12:38:37.599Z,1.55
2023-05-07T12:41:04.900Z,1.35
2023-05-07T12:43:32.152Z,1.70
2023-05-07T12:46:01.661Z,2.10
2023-05-07T12:48:29.417Z,1.40
2023-05-07T12:50:57.050Z,1.50
2023-05-07T12:53:25.695Z,1.60
2023-05-07T12:55:53.896Z,1.50
2023-05-07T12:58:22.789Z,1.50
2023-05-07T13:00:50.932Z,1.58
2023-05-07T13:03:31.574Z,1.80
2023-05-07T13:06:03.791Z,1.70
2023-05-07T13:08:32.585Z,1.70
2023-05-07T13:11:01.436Z,1.67
2023-05-07T13:13:31.005Z,1.60
2023-05-07T13:15:59.664Z,1.90
2023-05-07T13:18:27.727Z,1.58
2023-05-07T13:20:55.314Z,1.70
2023-05-07T13:23:22.673Z,1.65
2023-05-07T13:25:50.151Z,1.90
2023-05-07T13:28:17.355Z,1.92
2023-05-07T13:30:44.560Z,1.80
2023-05-07T13:33:12.466Z,1.83
2023-05-07T13:35:39.720Z,2.03
2023-05-07T13:38:07.068Z,1.80
2023-05-07T13:40:34.318Z,2.30
2023-05-07T13:43:03.253Z,2.35
2023-05-07T13:45:31.187Z,2.28
2023-05-07T13:47:59.240Z,2.13
2023-05-07T13:50:28.130Z,2.00
2023-05-07T13:52:55.370Z,1.63
2023-05-07T13:55:24.028Z,1.90
2023-05-07T13:57:57.639Z,1.58
2023-05-07T14:00:25.484Z,2.35
2023-05-07T14:02:52.766Z,1.90
2023-05-07T14:05:20.374Z,1.67
2023-05-07T14:07:48.719Z,1.70
2023-05-07T14:10:15.965Z,1.90
2023-05-07T14:12:43.287Z,1.85
2023-05-07T14:15:10.802Z,1.75
2023-05-07T14:17:38.014Z,2.13
2023-05-07T14:20:07.384Z,1.67
2023-05-07T14:22:34.590Z,1.80
2023-05-07T14:25:06.755Z,1.50
2023-05-07T14:27:34.626Z,1.70
2023-05-07T14:30:01.858Z,1.58
2023-05-07T14:32:29.483Z,1.50
2023-05-07T14:34:56.889Z,1.90
2023-05-07T14:37:24.152Z,1.90
2023-05-07T14:39:51.300Z,2.10
2023-05-07T14:42:19.012Z,1.55
2023-05-07T14:44:47.577Z,1.83
2023-05-07T14:47:16.747Z,1.95
2023-05-07T14:49:44.687Z,1.52
2023-05-07T14:52:11.896Z,1.55
2023-05-07T14:54:40.072Z,1.70
2023-05-07T14:57:08.137Z,1.80
2023-05-07T14:59:35.578Z,2.15
2023-05-07T15:02:06.231Z,1.88
2023-05-07T15:04:34.260Z,1.90
2023-05-07T15:07:01.933Z,2.00
2023-05-07T15:09:29.144Z,1.60
2023-05-07T15:11:56.345Z,1.67
2023-05-07T15:14:23.539Z,1.85
2023-05-07T15:16:51.020Z,2.08
2023-05-07T15:19:18.326Z,1.95
2023-05-07T15:21:45.772Z,1.73
2023-05-07T15:24:12.904Z,1.90
2023-05-07T15:26:40.375Z,1.60
2023-05-07T15:29:11.090Z,1.88
2023-05-07T15:31:40.017Z,1.73
2023-05-07T15:34:07.483Z,1.73
2023-05-07T15:36:34.671Z,2.08
2023-05-07T15:39:03.663Z,2.03
2023-05-07T15:41:31.290Z,2.80
2023-05-07T15:43:58.649Z,4.07
2023-05-07T15:46:26.959Z,2.40
2023-05-07T15:48:54.782Z,2.60
2023-05-07T15:51:23.440Z,1.65
2023-05-07T15:53:52.566Z,1.80
2023-05-07T15:56:19.843Z,2.95
2023-05-07T15:58:47.264Z,2.60
2023-05-07T16:01:14.531Z,2.78
2023-05-07T16:03:42.124Z,2.63
2023-05-07T16:06:13.577Z,2.20
2023-05-07T16:08:41.697Z,1.75
2023-05-07T16:11:08.910Z,1.70
2023-05-07T16:13:39.669Z,1.83
2023-05-07T16:16:07.010Z,2.13
2023-05-07T16:18:35.896Z,3.15
2023-05-07T16:21:03.253Z,4.55
2023-05-07T16:23:31.416Z,2.97
2023-05-07T16:25:58.550Z,1.70
2023-05-07T16:28:26.724Z,2.22
2023-05-07T16:30:54.012Z,2.30
2023-05-07T16:33:21.796Z,2.13
2023-05-07T16:35:53.088Z,2.42
2023-05-07T16:38:20.313Z,2.20
2023-05-07T16:40:47.567Z,2.40
2023-05-07T16:43:14.720Z,2.30
2023-05-07T16:45:41.903Z,2.00
2023-05-07T16:48:09.367Z,3.63
2023-05-07T16:50:36.946Z,3.33
2023-05-07T16:53:07.131Z,3.42
2023-05-07T16:55:38.712Z,6.47
2023-05-07T16:58:07.410Z,3.75
2023-05-07T17:00:42.581Z,4.20
2023-05-07T17:03:16.274Z,2.60
2023-05-07T17:05:43.588Z,2.70
2023-05-07T17:08:10.901Z,2.47
2023-05-07T17:10:38.253Z,3.20
2023-05-07T17:13:05.537Z,3.50
2023-05-07T17:15:32.744Z,2.15
2023-05-07T17:18:00.017Z,2.33
2023-05-07T17:20:27.241Z,2.10
2023-05-07T17:22:56.366Z,2.63
2023-05-07T17:25:23.983Z,2.63
2023-05-07T17:27:51.429Z,2.22
2023-05-07T17:30:19.198Z,2.70
2023-05-07T17:32:50.381Z,2.92
2023-05-07T17:35:17.666Z,2.90
2023-05-07T17:37:52.266Z,2.75
2023-05-07T17:40:20.910Z,2.25
2023-05-07T17:42:51.337Z,2.35
2023-05-07T17:45:19.577Z,2.33
2023-05-07T17:47:47.074Z,2.35
2023-05-07T17:50:14.999Z,2.50
2023-05-07T17:52:42.419Z,2.58
2023-05-07T17:55:09.965Z,2.47
2023-05-07T17:57:37.291Z,2.60
2023-05-07T18:00:07.698Z,2.65
2023-05-07T18:02:35.126Z,2.53
2023-05-07T18:05:02.495Z,2.70
2023-05-07T18:07:29.846Z,2.20
2023-05-07T18:10:00.175Z,2.95
2023-05-07T18:12:27.896Z,2.75
2023-05-07T18:14:55.264Z,2.72
2023-05-07T18:17:24.330Z,3.05
2023-05-07T18:19:54.748Z,2.50
2023-05-07T18:22:22.492Z,3.58
2023-05-07T18:24:51.068Z,3.00
2023-05-07T18:27:18.689Z,3.30
2023-05-07T18:29:45.956Z,3.42
2023-05-07T18:32:13.829Z,2.97
2023-05-07T18:34:41.317Z,3.00
2023-05-07T18:37:08.583Z,2.97
2023-05-07T18:39:36.249Z,3.13
2023-05-07T18:42:05.281Z,3.17
2023-05-07T18:44:33.333Z,3.50
2023-05-07T18:47:00.668Z,3.33
2023-05-07T18:49:27.857Z,3.50
2023-05-07T18:51:55.017Z,3.53
2023-05-07T18:54:22.251Z,3.60
2023-05-07T18:56:49.915Z,3.87
2023-05-07T18:59:17.178Z,4.67
2023-05-07T19:01:44.454Z,4.30
2023-05-07T19:04:11.932Z,4.30
2023-05-07T19:06:39.341Z,4.70
2023-05-07T19:09:06.525Z,5.17
2023-05-07T19:11:33.688Z,4.33
2023-05-07T19:14:02.964Z,4.80
2023-05-07T19:16:31.681Z,4.53
2023-05-07T19:18:58.891Z,4.60
2023-05-07T19:21:26.820Z,5.13
2023-05-07T19:23:54.185Z,4.17
2023-05-07T19:26:21.436Z,4.93
2023-05-07T19:28:56.935Z,4.60
2023-05-07T19:31:34.367Z,6.30
2023-05-07T19:34:01.620Z,18.07
2023-05-07T19:36:28.813Z,28.50
2023-05-07T19:38:56.013Z,30.20
2023-05-07T19:41:23.383Z,35.60
2023-05-07T19:43:50.507Z,36.97
2023-05-07T19:46:17.707Z,38.00
2023-05-07T19:48:45.685Z,38.43
2023-05-07T19:51:13.062Z,40.57
2023-05-07T19:53:40.357Z,40.33
2023-05-07T19:56:08.668Z,42.37
2023-05-07T19:58:36.319Z,46.00
2023-05-07T20:01:04.174Z,50.90
2023-05-07T20:03:32.371Z,51.53
2023-05-07T20:05:59.764Z,68.97
2023-05-07T20:08:28.067Z,74.17
2023-05-07T20:10:55.725Z,73.70
2023-05-07T20:13:22.981Z,65.00
2023-05-07T20:15:50.469Z,51.10
2023-05-07T20:18:17.659Z,40.50
2023-05-07T20:20:45.817Z,35.97
2023-05-07T20:23:13.038Z,30.50
2023-05-07T20:25:43.533Z,26.87
2023-05-07T20:28:10.717Z,24.20
2023-05-07T20:30:38.041Z,24.77
2023-05-07T20:33:05.339Z,24.43
2023-05-07T20:35:32.925Z,23.90
2023-05-07T20:38:00.250Z,25.40
2023-05-07T20:40:27.959Z,21.93
2023-05-07T20:42:55.124Z,21.10
2023-05-07T20:45:22.454Z,18.40
2023-05-07T20:47:49.915Z,19.30
2023-05-07T20:50:17.141Z,18.80
2023-05-07T20:52:45.182Z,19.47
2023-05-07T20:55:12.466Z,18.03
2023-05-07T20:57:39.722Z,16.57
2023-05-07T21:00:08.264Z,18.10
2023-05-07T21:02:36.279Z,17.07
2023-05-07T21:05:03.728Z,18.57
2023-05-07T21:07:30.939Z,18.20
2023-05-07T21:09:58.093Z,18.93
2023-05-07T21:12:25.386Z,18.50
2023-05-07T21:14:52.591Z,18.97
2023-05-07T21:17:19.791Z,18.03
2023-05-07T21:19:47.823Z,19.53
2023-05-07T21:22:15.016Z,21.50
2023-05-07T21:24:42.257Z,22.33
2023-05-07T21:27:09.492Z,22.07
2023-05-07T21:29:36.804Z,23.67
2023-05-07T21:32:04.410Z,22.50
2023-05-07T21:34:31.771Z,20.90
2023-05-07T21:36:59.249Z,20.37
2023-05-07T21:39:26.534Z,19.97
2023-05-07T21:41:53.811Z,18.83
2023-05-07T21:44:21.455Z,17.30
2023-05-07T21:46:48.675Z,17.80
2023-05-07T21:49:15.892Z,17.27
2023-05-07T21:51:43.138Z,18.13
2023-05-07T21:54:10.312Z,18.43
2023-05-07T21:56:37.513Z,17.43
2023-05-07T21:59:04.666Z,15.10
2023-05-07T22:01:31.851Z,13.60
2023-05-07T22:03:59.874Z,14.63
2023-05-07T22:06:27.266Z,13.37
2023-05-07T22:08:54.422Z,14.67
2023-05-07T22:11:21.847Z,13.27
2023-05-07T22:13:49.087Z,13.87
2023-05-07T22:16:16.397Z,14.83
2023-05-07T22:18:43.948Z,14.27
2023-05-07T22:21:11.150Z,15.50
2023-05-07T22:23:38.381Z,15.83
2023-05-07T22:26:10.547Z,15.57
2023-05-07T22:28:37.805Z,18.37
2023-05-07T22:31:04.974Z,18.53
2023-05-07T22:33:32.709Z,17.23
2023-05-07T22:36:00.516Z,17.37
2023-05-07T22:38:27.743Z,18.23
2023-05-07T22:40:54.941Z,17.47
2023-05-07T22:43:22.234Z,19.07
2023-05-07T22:45:50.115Z,18.07
2023-05-07T22:48:17.350Z,19.07
2023-05-07T22:50:44.584Z,19.57
2023-05-07T22:53:11.773Z,19.87
2023-05-07T22:55:39.396Z,19.70
2023-05-07T22:58:07.976Z,19.50
2023-05-07T23:00:35.642Z,17.00
2023-05-07T23:03:03.081Z,16.30
2023-05-07T23:05:30.389Z,16.03
2023-05-07T23:07:58.176Z,15.03
2023-05-07T23:10:25.538Z,12.87
2023-05-07T23:12:52.820Z,12.77
2023-05-07T23:15:20.777Z,11.87
2023-05-07T23:17:48.167Z,12.83
2023-05-07T23:20:15.572Z,13.30
2023-05-07T23:22:42.996Z,13.33
2023-05-07T23:25:10.365Z,13.80
2023-05-07T23:27:37.521Z,13.93
2023-05-07T23:30:04.886Z,13.07
2023-05-07T23:32:32.386Z,13.63
2023-05-07T23:34:59.640Z,12.87
2023-05-07T23:37:26.895Z,13.60
2023-05-07T23:39:54.660Z,12.73
2023-05-07T23:42:21.995Z,13.47
2023-05-07T23:44:49.217Z,13.40
2023-05-07T23:47:16.442Z,12.97
2023-05-07T23:49:43.650Z,11.43
2023-05-07T23:52:10.819Z,10.93
2023-05-07T23:54:38.103Z,10.80
2023-05-07T23:57:05.461Z,10.93
2023-05-07T23:59:33.002Z,12.37
